Time;durP1;ratioP1;P1;durP2;ratioP2;P2;SDS_P1;SDS_P2;PMS_P1;PMS_P2;Temp;Humidity;BMP_temperature;BMP_pressure;BME280_temperature;BME280_humidity;BME280_pressure;Samples;Min_cycle;Max_cycle;Signal;HPM_P1;HPM_P2
2022/04/22 00:02:40;;;;;;;3.20;1.20;;;;;;;9.77;66.36;98175.59;8185585;29;20051;-74
2022/04/22 00:06:41;;;;;;;1.25;0.98;;;;;;;9.77;66.62;98178.19;8191862;29;20078;-73
2022/04/22 00:15:04;;;;;;;1.55;1.17;;;;;;;9.74;67.40;98167.03;8190144;28;20039;-73
2022/04/22 00:19:06;;;;;;;;;;;;;;;9.73;67.08;98163.59;8191308;28;20459;-73
2022/04/22 00:23:08;;;;;;;2.35;1.27;;;;;;;9.69;67.88;98165.41;8190129;29;19926;-74
2022/04/22 00:27:09;;;;;;;3.20;1.30;;;;;;;9.65;67.27;98174.09;8190263;29;20519;-73
2022/04/22 00:31:11;;;;;;;1.42;1.00;;;;;;;9.62;68.23;98166.38;8166601;29;20093;-73
2022/04/22 00:35:12;;;;;;;3.03;1.30;;;;;;;9.62;68.17;98170.72;8189569;29;20383;-73
2022/04/22 00:39:14;;;;;;;1.20;1.10;;;;;;;9.55;68.16;98169.16;8190594;29;20137;-73
2022/04/22 00:43:17;;;;;;;1.70;1.02;;;;;;;9.54;68.53;98170.03;8190281;29;20047;-73
2022/04/22 00:47:18;;;;;;;1.63;1.45;;;;;;;9.53;68.76;98161.41;8169370;29;20093;-73
2022/04/22 00:51:21;;;;;;;2.42;1.40;;;;;;;9.52;68.75;98158.84;8189816;29;20047;-73
2022/04/22 00:55:24;;;;;;;2.05;1.20;;;;;;;9.51;69.17;98165.75;8189198;29;20062;-73
2022/04/22 00:59:27;;;;;;;4.00;1.40;;;;;;;9.46;68.69;98159.81;8191687;28;20047;-73
2022/04/22 01:03:29;;;;;;;1.42;1.33;;;;;;;9.44;69.40;98160.72;8186074;29;20142;-73
2022/04/22 01:11:51;;;;;;;1.70;1.33;;;;;;;9.39;69.54;98150.47;8186022;29;20074;-73
2022/04/22 01:15:52;;;;;;;1.90;1.67;;;;;;;9.35;70.09;98143.63;8187380;28;20108;-73
2022/04/22 01:19:55;;;;;;;2.33;1.13;;;;;;;9.33;69.76;98140.19;8173116;29;20085;-73
2022/04/22 01:23:56;;;;;;;1.95;1.75;;;;;;;9.29;69.82;98133.38;8188983;29;20454;-73
2022/04/22 01:27:59;;;;;;;2.75;1.90;;;;;;;9.24;69.63;98124.84;8187827;29;20062;-73
2022/04/22 01:32:01;;;;;;;2.33;1.65;;;;;;;9.18;70.30;98125.84;8172200;29;20527;-73
2022/04/22 01:36:03;;;;;;;2.33;1.70;;;;;;;9.11;70.08;98115.59;8171992;29;20066;-73
2022/04/22 01:40:05;;;;;;;2.20;1.80;;;;;;;9.02;71.15;98117.50;8189094;28;20138;-73
2022/04/22 01:44:07;;;;;;;4.13;2.17;;;;;;;8.96;71.20;98120.19;8195321;29;20074;-73
2022/04/22 01:48:08;;;;;;;2.28;1.63;;;;;;;8.91;71.44;98114.25;8192476;28;20091;-73
2022/04/22 01:52:10;;;;;;;2.80;2.45;;;;;;;8.86;71.42;98113.47;8194419;29;20054;-73
2022/04/22 01:56:12;;;;;;;3.72;2.33;;;;;;;8.81;71.49;98111.88;8197344;28;20070;-73
2022/04/22 02:00:13;;;;;;;2.75;2.40;;;;;;;8.77;71.99;98111.03;8190847;29;20071;-73
2022/04/22 02:04:15;;;;;;;2.63;2.42;;;;;;;8.75;71.70;98113.66;8196355;29;20047;-73
2022/04/22 02:08:16;;;;;;;2.10;1.92;;;;;;;8.74;71.70;98113.69;8199007;29;20576;-73
2022/04/22 02:12:18;;;;;;;2.93;2.63;;;;;;;8.70;71.31;98110.31;8179263;29;20051;-73
2022/04/22 02:16:19;;;;;;;4.50;2.60;;;;;;;8.64;72.13;98101.81;8158163;28;20097;-73
2022/04/22 02:20:22;;;;;;;5.07;3.63;;;;;;;8.58;72.64;98100.16;8178684;29;20147;-73
2022/04/22 02:24:23;;;;;;;5.50;4.40;;;;;;;8.54;72.84;98093.34;8177109;29;20074;-73
2022/04/22 02:28:31;;;;;;;6.78;3.38;;;;;;;8.52;72.66;98086.50;8175186;29;20059;-72
2022/04/22 02:32:33;;;;;;;5.43;3.90;;;;;;;8.50;72.55;98081.34;8148010;29;21364;-72
2022/04/22 02:36:34;;;;;;;7.85;4.25;;;;;;;8.43;73.36;98079.72;8176353;29;20079;-73
2022/04/22 02:49:15;;;;;;;3.88;3.47;;;;;;;8.27;73.80;98076.53;8175138;29;20632;-73
2022/04/22 02:53:17;;;;;;;4.45;3.83;;;;;;;8.27;72.97;98075.69;8174880;28;20058;-73
2022/04/22 02:57:19;;;;;;;4.68;3.80;;;;;;;8.23;73.57;98066.25;8175131;28;20642;-73
2022/04/22 03:01:20;;;;;;;4.97;3.92;;;;;;;8.18;73.97;98066.31;8171122;29;20508;-74
2022/04/22 03:05:22;;;;;;;4.80;4.20;;;;;;;8.20;73.25;98067.16;8170262;29;20058;-73
2022/04/22 03:09:23;;;;;;;5.43;3.65;;;;;;;8.17;73.37;98051.69;8171031;29;20051;-73
2022/04/22 03:13:25;;;;;;;5.78;4.03;;;;;;;8.10;73.87;98056.13;8172921;29;20150;-73
2022/04/22 03:17:27;;;;;;;5.03;4.18;;;;;;;8.06;74.11;98054.44;8151962;29;20583;-72
2022/04/22 03:21:28;;;;;;;5.32;4.78;;;;;;;8.01;74.28;98045.06;8168761;29;20479;-73
2022/04/22 03:25:29;;;;;;;4.20;3.80;;;;;;;7.93;74.82;98047.78;8169252;29;20046;-73
2022/04/22 03:29:31;;;;;;;4.90;3.85;;;;;;;7.86;74.75;98052.16;8171586;29;20353;-73
2022/04/22 03:33:32;;;;;;;5.68;4.47;;;;;;;7.81;74.84;98051.41;8181739;29;20138;-73
2022/04/22 03:37:34;;;;;;;6.27;4.50;;;;;;;7.77;75.32;98052.31;8192036;28;20062;-73
2022/04/22 03:41:38;;;;;;;6.80;4.53;;;;;;;7.78;74.94;98053.19;8193160;29;20051;-73
2022/04/22 03:45:39;;;;;;;5.85;4.80;;;;;;;7.76;75.29;98053.19;8187943;29;20047;-73
2022/04/22 03:49:41;;;;;;;6.33;4.70;;;;;;;7.74;75.15;98049.78;8189161;29;20137;-73
2022/04/22 03:53:42;;;;;;;7.18;5.25;;;;;;;7.69;75.55;98055.88;8176039;29;20047;-73
2022/04/22 04:02:04;;;;;;;7.82;5.32;;;;;;;7.60;76.04;98046.53;8188416;29;20051;-72
2022/04/22 04:06:07;;;;;;;8.77;5.88;;;;;;;7.60;76.03;98046.53;8192284;28;20043;-73
2022/04/22 04:18:49;;;;;;;8.48;6.85;;;;;;;7.49;76.46;98046.69;8189273;28;20074;-72
2022/04/22 04:27:10;;;;;;;7.65;6.40;;;;;;;7.42;76.68;98037.31;8188451;29;20485;-73
2022/04/22 04:31:19;;;;;;;8.63;6.28;;;;;;;7.40;77.02;98048.56;8183609;29;20075;-73
2022/04/22 04:35:21;;;;;;;11.07;6.50;;;;;;;7.40;77.07;98041.66;8158810;29;20043;-73
2022/04/22 04:39:22;;;;;;;7.38;6.28;;;;;;;7.45;76.80;98045.03;8189888;29;20047;-73
2022/04/22 04:43:24;;;;;;;12.07;7.45;;;;;;;7.45;76.94;98047.59;8190429;29;20130;-74
2022/04/22 04:47:26;;;;;;;8.75;6.97;;;;;;;7.47;76.92;98042.41;8173721;29;20416;-73
2022/04/22 04:51:27;;;;;;;10.20;7.15;;;;;;;7.47;77.43;98045.00;8190355;29;20063;-73
2022/04/22 04:55:29;;;;;;;9.75;7.50;;;;;;;7.48;77.68;98041.53;8190426;29;20598;-73
2022/04/22 04:59:30;;;;;;;10.55;7.05;;;;;;;7.57;76.96;98046.59;8175716;29;20066;-73
2022/04/22 05:03:31;;;;;;;11.00;7.53;;;;;;;7.57;77.35;98044.00;8169518;29;20075;-73
2022/04/22 05:07:34;;;;;;;13.13;7.72;;;;;;;7.60;77.08;98043.09;8172567;29;20672;-74
2022/04/22 05:11:36;;;;;;;9.88;7.15;;;;;;;7.65;77.37;98038.72;8190335;29;20131;-73
2022/04/22 05:15:39;;;;;;;10.30;7.22;;;;;;;7.71;77.45;98042.06;8187991;28;20043;-73
2022/04/22 05:19:40;;;;;;;9.93;7.50;;;;;;;7.79;76.87;98047.97;8170798;29;20043;-73
2022/04/22 05:23:42;;;;;;;9.43;7.10;;;;;;;7.87;76.85;98043.53;8164959;29;20635;-73
2022/04/22 05:27:44;;;;;;;12.77;8.02;;;;;;;7.97;76.67;98040.81;8186687;28;20511;-73
2022/04/22 05:36:06;;;;;;;13.48;8.88;;;;;;;8.22;76.07;98041.25;8187726;29;20106;-73
2022/04/22 05:40:10;;;;;;;12.43;8.40;;;;;;;8.35;75.37;98042.81;8189567;29;20058;-73
2022/04/22 05:44:11;;;;;;;13.85;7.65;;;;;;;8.65;74.71;98037.09;8189660;29;20082;-73
2022/04/22 05:48:13;;;;;;;9.48;7.35;;;;;;;9.13;73.24;98044.78;8184257;29;20170;-73
2022/04/22 05:52:14;;;;;;;12.10;8.23;;;;;;;9.32;71.99;98042.66;8186061;29;20055;-73
2022/04/22 05:56:20;;;;;;;11.25;8.25;;;;;;;9.66;70.76;98048.81;8174616;28;20047;-73
2022/04/22 06:00:24;;;;;;;11.32;7.93;;;;;;;9.69;70.86;98047.88;8182752;29;20527;-73
2022/04/22 06:04:25;;;;;;;11.73;7.88;;;;;;;9.95;69.75;98042.13;8189250;29;20047;-73
2022/04/22 06:12:47;;;;;;;9.52;7.63;;;;;;;10.18;68.17;98026.00;8188803;29;20125;-73
2022/04/22 06:16:49;;;;;;;12.20;7.65;;;;;;;10.28;67.87;98030.97;8185671;28;20047;-73
2022/04/22 06:20:51;;;;;;;11.50;8.10;;;;;;;10.35;67.20;98029.06;8170669;29;20112;-73
2022/04/22 06:24:53;;;;;;;12.15;7.18;;;;;;;10.35;67.21;98031.66;8171972;29;20058;-73
2022/04/22 06:28:54;;;;;;;10.07;7.57;;;;;;;10.41;67.61;98017.66;8192151;28;20145;-73
2022/04/22 06:32:56;;;;;;;10.27;7.60;;;;;;;10.59;66.88;98023.25;8188726;29;20047;-74
2022/04/22 06:36:58;;;;;;;11.70;7.90;;;;;;;11.07;65.17;98014.13;8176410;29;20047;-73
2022/04/22 06:49:41;;;;;;;11.23;8.38;;;;;;;12.16;61.23;98011.69;8179169;29;20407;-76
2022/04/22 06:53:43;;;;;;;14.95;7.15;;;;;;;12.29;60.80;98018.19;8194288;29;20043;-75
2022/04/22 06:57:49;;;;;;;9.18;6.82;;;;;;;12.54;59.73;98012.97;8195653;28;20058;-74
2022/04/22 07:01:51;;;;;;;10.35;7.13;;;;;;;12.76;59.14;98013.97;8190716;29;20697;-74
2022/04/22 07:05:53;;;;;;;8.32;6.07;;;;;;;12.77;58.36;98009.59;8176858;29;20413;-74
2022/04/22 07:09:55;;;;;;;9.15;6.97;;;;;;;13.03;57.39;97999.06;8193024;29;20074;-74
2022/04/22 07:13:59;;;;;;;8.55;6.80;;;;;;;13.27;56.83;97997.34;8177165;29;20051;-74
2022/04/22 07:18:01;;;;;;;9.65;6.50;;;;;;;13.63;55.63;97997.69;8180192;29;20058;-74
2022/04/22 07:22:03;;;;;;;8.63;6.43;;;;;;;13.78;55.23;97989.25;8192856;29;20462;-73
2022/04/22 07:26:11;;;;;;;8.32;6.43;;;;;;;14.01;54.52;97987.50;8193104;29;20768;-73
2022/04/22 07:30:15;;;;;;;9.85;7.13;;;;;;;14.16;53.57;97984.25;8186840;29;20047;-74
2022/04/22 07:34:17;;;;;;;9.35;6.38;;;;;;;14.32;53.40;97984.47;8172708;29;20130;-74
2022/04/22 07:38:19;;;;;;;8.27;6.80;;;;;;;14.47;52.25;97987.31;8192133;28;20035;-74
2022/04/22 07:42:21;;;;;;;7.55;6.50;;;;;;;14.55;52.19;97984.38;8159716;29;20402;-74
2022/04/22 07:50:46;;;;;;;7.18;5.88;;;;;;;14.73;52.12;97991.44;8189979;29;20618;-73
2022/04/22 07:54:47;;;;;;;7.03;5.97;;;;;;;15.00;51.77;97991.97;8192192;29;20071;-73
2022/04/22 07:58:49;;;;;;;9.73;6.30;;;;;;;15.16;51.04;97983.44;8192582;29;20051;-75
2022/04/22 08:02:50;;;;;;;15.30;6.93;;;;;;;15.48;50.38;97981.97;8175574;29;20047;-73
2022/04/22 08:06:52;;;;;;;6.80;5.97;;;;;;;15.57;49.80;97989.38;8192331;29;20082;-73
2022/04/22 08:11:13;;;;;;;7.90;6.25;;;;;;;15.71;49.07;97989.59;8187316;29;20047;-73
2022/04/22 08:15:15;;;;;;;6.70;5.80;;;;;;;15.92;48.80;97990.34;8190839;28;20042;-73
2022/04/22 08:19:16;;;;;;;8.07;6.32;;;;;;;15.95;47.19;97990.19;8190493;29;20093;-73
2022/04/22 08:23:21;;;;;;;7.93;5.30;;;;;;;16.11;47.33;97983.28;8191952;29;20083;-73
2022/04/22 08:27:26;;;;;;;7.30;5.78;;;;;;;16.21;47.18;97984.53;8190766;29;20047;-73
2022/04/22 08:31:27;;;;;;;7.18;6.25;;;;;;;16.24;46.84;97979.13;8184560;29;20478;-73
2022/04/22 08:35:29;;;;;;;10.48;5.93;;;;;;;16.26;46.67;97979.91;8191666;29;20065;-73
2022/04/22 08:39:30;;;;;;;6.28;5.10;;;;;;;16.29;46.68;97978.91;8173835;29;20454;-73
2022/04/22 08:43:33;;;;;;;7.10;5.68;;;;;;;16.45;46.33;97977.19;8172661;29;20110;-73
2022/04/22 08:52:00;;;;;;;7.32;5.13;;;;;;;16.87;46.20;97968.91;8188873;28;19926;-73
2022/04/22 08:56:03;;;;;;;8.07;5.47;;;;;;;17.05;45.81;97964.47;8190711;28;20059;-73
2022/04/22 09:00:07;;;;;;;10.25;6.30;;;;;;;17.10;45.50;97961.63;8191252;28;20454;-73
2022/04/22 09:04:08;;;;;;;8.02;5.53;;;;;;;17.15;45.49;97956.97;8187573;29;20047;-73
2022/04/22 09:08:10;;;;;;;9.93;6.10;;;;;;;17.30;45.33;97948.28;8185473;29;20044;-73
2022/04/22 09:12:13;;;;;;;6.18;5.60;;;;;;;17.42;44.89;97947.63;8187381;29;20054;-73
2022/04/22 09:16:19;;;;;;;7.45;5.82;;;;;;;17.55;43.74;97945.13;8168028;28;21191;-73
2022/04/22 09:20:21;;;;;;;6.00;5.15;;;;;;;17.46;43.89;97962.25;8171125;29;20047;-73
2022/04/22 09:24:22;;;;;;;12.80;4.88;;;;;;;17.64;43.54;97951.66;8188599;29;20047;-72
2022/04/22 09:28:24;;;;;;;5.15;4.60;;;;;;;17.63;43.58;97942.09;8189132;29;20071;-72
2022/04/22 09:32:27;;;;;;;6.38;4.53;;;;;;;17.73;45.03;97943.28;8183303;29;20061;-72
2022/04/22 09:45:10;;;;;;;6.65;4.53;;;;;;;18.26;43.18;97920.97;8174123;29;20130;-73
2022/04/22 09:49:12;;;;;;;4.90;4.40;;;;;;;18.50;42.25;97913.41;8154015;29;20528;-74
2022/04/22 09:53:14;;;;;;;5.05;4.55;;;;;;;18.45;42.20;97911.03;8175788;28;20147;-73
2022/04/22 09:57:16;;;;;;;5.38;4.88;;;;;;;18.59;41.78;97911.06;8188705;28;20080;-73
2022/04/22 10:01:18;;;;;;;7.50;4.78;;;;;;;18.72;42.65;97913.84;8167288;28;20075;-73
2022/04/22 10:05:31;;;;;;;4.70;4.25;;;;;;;18.89;41.53;97897.03;8190882;29;20163;-72
2022/04/22 10:09:35;;;;;;;5.65;3.70;;;;;;;18.95;41.02;97899.25;8189113;28;20070;-72
2022/04/22 10:13:44;;;;;;;7.57;4.53;;;;;;;18.98;40.98;97886.75;8173606;29;20042;-72
2022/04/22 10:17:50;;;;;;;5.18;4.68;;;;;;;19.02;40.69;97884.78;8186805;28;20051;-72
2022/04/22 10:21:52;;;;;;;6.03;4.22;;;;;;;19.05;41.08;97896.91;8190471;29;20053;-73
2022/04/22 10:25:53;;;;;;;4.22;3.67;;;;;;;19.11;39.97;97875.47;8173912;29;20058;-72
2022/04/22 10:29:57;;;;;;;4.03;3.72;;;;;;;19.26;40.54;97871.88;8174747;29;20117;-72
2022/04/22 10:34:06;;;;;;;4.00;3.40;;;;;;;19.45;40.26;97880.28;8186362;29;20110;-73
2022/04/22 10:38:34;;;;;;;4.50;4.10;;;;;;;19.67;39.20;97887.66;8191365;29;20511;-73
2022/04/22 10:42:38;;;;;;;3.90;3.60;;;;;;;19.71;38.93;97873.31;8191409;29;20043;-73
2022/04/22 10:51:03;;;;;;;3.70;3.38;;;;;;;19.64;38.45;97866.78;8190135;29;20051;-72
2022/04/22 10:55:05;;;;;;;6.57;4.60;;;;;;;19.83;39.26;97855.88;8173758;29;20110;-72
2022/04/22 10:59:15;;;;;;;5.10;4.32;;;;;;;20.03;37.87;97851.91;8192732;28;20078;-72
2022/04/22 11:03:34;;;;;;;6.43;4.43;;;;;;;20.00;38.54;97837.16;8185087;29;20051;-73
2022/04/22 11:07:57;;;;;;;5.03;3.38;;;;;;;20.12;38.67;97838.13;8168690;29;20337;-72
2022/04/22 11:11:59;;;;;;;3.58;3.10;;;;;;;20.16;38.74;97827.25;8182446;28;20047;-72
2022/04/22 11:16:22;;;;;;;3.88;3.40;;;;;;;20.40;38.47;97829.16;8180272;28;20050;-72
2022/04/22 11:20:24;;;;;;;9.25;3.42;;;;;;;20.62;38.57;97823.25;8189602;29;20117;-71
2022/04/22 11:24:29;;;;;;;9.60;4.40;;;;;;;20.59;37.36;97832.22;8189592;28;20051;-72
2022/04/22 11:28:40;;;;;;;3.88;3.10;;;;;;;20.78;38.10;97826.50;8178232;29;20035;-72
2022/04/22 11:32:48;;;;;;;3.85;3.50;;;;;;;20.88;36.35;97826.69;8181170;29;20162;-72
2022/04/22 11:36:50;;;;;;;4.10;3.33;;;;;;;20.74;36.59;97817.97;8170025;29;20621;-72
2022/04/22 11:40:51;;;;;;;3.67;3.38;;;;;;;20.62;36.11;97817.97;8172300;29;20134;-72
2022/04/22 11:45:16;;;;;;;4.10;3.35;;;;;;;20.66;37.83;97814.19;8185146;29;20408;-72
2022/04/22 11:49:19;;;;;;;8.15;3.33;;;;;;;20.95;36.65;97817.38;8187538;28;20051;-72
2022/04/22 11:53:32;;;;;;;5.03;3.83;;;;;;;20.86;36.00;97816.25;8187480;28;20094;-72
2022/04/22 11:57:37;;;;;;;6.10;3.53;;;;;;;20.69;36.58;97806.91;8175113;28;20031;-72
2022/04/22 12:05:58;;;;;;;2.33;2.03;;;;;;;20.06;35.31;97806.91;8164905;29;20039;-72
2022/04/22 12:10:02;;;;;;;3.20;1.92;;;;;;;20.11;37.10;97803.03;8147402;29;20071;-72
2022/04/22 12:14:04;;;;;;;2.40;2.20;;;;;;;20.46;36.94;97787.41;8165319;29;20067;-71
2022/04/22 12:18:06;;;;;;;8.70;2.65;;;;;;;20.92;37.69;97791.22;8158069;29;20079;-71
2022/04/22 12:22:07;;;;;;;5.10;2.80;;;;;;;20.94;35.18;97803.34;8162622;29;20798;-71
2022/04/22 12:26:19;;;;;;;9.70;2.33;;;;;;;20.65;36.39;97799.31;8166626;29;20067;-71
2022/04/22 12:30:21;;;;;;;7.38;2.53;;;;;;;20.57;35.55;97791.09;8145617;29;20040;-69
2022/04/22 12:34:31;;;;;;;10.60;2.33;;;;;;;20.35;35.88;97782.03;8134218;29;20052;-68
2022/04/22 12:38:36;;;;;;;2.05;1.92;;;;;;;20.70;34.44;97789.28;8167287;29;20102;-68
2022/04/22 12:42:39;;;;;;;2.30;2.10;;;;;;;20.42;34.22;97785.09;8163083;29;20047;-69
2022/04/22 12:55:24;;;;;;;;;;;;;;;21.30;34.02;97776.09;8163816;29;20098;-69
2022/04/22 12:59:51;;;;;;;2.40;2.05;;;;;;;21.35;34.39;97768.69;8164354;29;19926;-68
2022/04/22 13:03:53;;;;;;;6.07;1.88;;;;;;;21.16;33.95;97765.69;8162749;29;20051;-69
2022/04/22 13:07:55;;;;;;;2.60;2.38;;;;;;;20.67;33.28;97776.31;8163339;29;20329;-67
2022/04/22 13:11:56;;;;;;;3.67;2.22;;;;;;;20.26;34.88;97761.56;8159398;29;20054;-67
2022/04/22 13:15:59;;;;;;;2.75;2.53;;;;;;;20.56;36.16;97763.88;8159714;29;20059;-67
2022/04/22 13:20:01;;;;;;;2.60;2.38;;;;;;;21.03;35.48;97763.13;8161032;29;20075;-67
2022/04/22 13:24:02;;;;;;;5.13;2.38;;;;;;;20.78;35.04;97756.09;8163881;29;20704;-68
2022/04/22 13:28:04;;;;;;;2.65;2.45;;;;;;;21.16;34.10;97749.00;8162230;29;20048;-67
2022/04/22 13:32:11;;;;;;;2.50;2.03;;;;;;;21.54;33.28;97752.28;8159057;29;20054;-67
2022/04/22 13:36:14;;;;;;;5.07;2.60;;;;;;;21.25;32.91;97745.72;8164068;28;20051;-66
2022/04/22 13:40:16;;;;;;;3.50;2.80;;;;;;;20.74;34.51;97756.44;8185746;28;20089;-68
2022/04/22 13:52:21;;;;;;;;;;;;;;;20.92;35.06;97754.28;8184128;28;20047;-68
2022/04/22 13:52:59;;;;;;;4.78;3.60;;;;;;;20.46;34.28;97752.28;8185860;28;20051;-68
2022/04/22 13:57:02;;;;;;;2.10;1.90;;;;;;;20.75;34.28;97747.59;8177950;28;20131;-67
2022/04/22 14:01:03;;;;;;;5.03;2.83;;;;;;;21.04;33.63;97748.13;8159472;29;20061;-68
2022/04/22 14:05:05;;;;;;;2.75;2.22;;;;;;;20.73;32.82;97746.84;8159227;29;20043;-68
2022/04/22 14:09:06;;;;;;;;;;;;;;;20.37;34.51;97745.00;8178664;29;20090;-68
2022/04/22 14:13:08;;;;;;;3.83;1.80;;;;;;;20.55;34.48;97743.75;8185643;29;19937;-67
2022/04/22 14:17:10;;;;;;;2.13;1.73;;;;;;;20.85;34.64;97755.69;8180485;29;20054;-67
2022/04/22 14:21:11;;;;;;;2.33;1.67;;;;;;;20.72;34.01;97746.00;8184980;29;20039;-67
2022/04/22 14:25:13;;;;;;;2.28;1.92;;;;;;;20.38;34.52;97742.25;8184541;29;20513;-67
2022/04/22 14:29:14;;;;;;;1.92;1.25;;;;;;;20.44;33.82;97741.84;8184428;28;20067;-67
2022/04/22 14:33:16;;;;;;;1.95;1.40;;;;;;;20.44;34.48;97736.56;8179482;29;20047;-67
2022/04/22 14:37:18;;;;;;;3.08;1.33;;;;;;;20.59;34.70;97728.53;8179502;29;20045;-68
2022/04/22 14:41:19;;;;;;;2.30;1.73;;;;;;;20.96;33.86;97742.53;8183424;28;20336;-69
2022/04/22 14:45:21;;;;;;;8.55;1.75;;;;;;;20.85;34.52;97718.75;8184147;29;20057;-67
2022/04/22 14:49:27;;;;;;;1.52;1.40;;;;;;;21.00;34.38;97720.25;8187904;28;20043;-68
2022/04/22 14:53:29;;;;;;;3.60;1.58;;;;;;;21.28;34.16;97725.22;8190656;29;20047;-72
2022/04/22 14:57:30;;;;;;;2.60;1.38;;;;;;;21.60;34.68;97725.44;8188708;28;20081;-72
2022/04/22 15:01:33;;;;;;;6.30;1.60;;;;;;;21.46;33.28;97719.50;8167991;29;20051;-72
2022/04/22 15:05:36;;;;;;;3.95;1.60;;;;;;;21.23;33.93;97726.50;8171895;29;20047;-71
2022/04/22 15:09:38;;;;;;;2.65;1.52;;;;;;;21.55;34.51;97724.13;8191312;29;20110;-71
2022/04/22 15:13:39;;;;;;;;;;;;;;;21.79;32.94;97718.75;8189424;29;20079;-71
2022/04/22 15:26:21;;;;;;;1.88;1.20;;;;;;;21.40;34.15;97710.25;8189500;29;20106;-71
2022/04/22 15:31:02;;;;;;;3.95;1.30;;;;;;;21.59;33.20;97712.34;8185089;29;20446;-71
2022/04/22 15:35:05;;;;;;;2.97;0.95;;;;;;;21.89;34.01;97717.06;8188370;28;20155;-71
2022/04/22 15:39:07;;;;;;;5.32;1.80;;;;;;;21.98;32.68;97719.03;8172283;29;20121;-72
2022/04/22 15:43:09;;;;;;;2.17;1.48;;;;;;;21.75;33.04;97707.59;8188057;28;20071;-71
2022/04/22 15:47:10;;;;;;;4.40;1.23;;;;;;;21.65;33.94;97710.06;8181787;28;20138;-71
2022/04/22 15:51:12;;;;;;;2.33;1.10;;;;;;;21.51;33.69;97701.50;8185903;28;20440;-71
2022/04/22 15:55:14;;;;;;;3.47;1.38;;;;;;;21.39;34.08;97706.78;8185963;29;20054;-71
2022/04/22 15:59:16;;;;;;;4.10;1.75;;;;;;;21.02;34.30;97713.94;8183050;28;20050;-72
2022/04/22 16:03:17;;;;;;;3.80;1.77;;;;;;;20.68;34.24;97715.53;8164687;29;20051;-73
2022/04/22 16:07:23;;;;;;;1.88;1.30;;;;;;;20.33;35.07;97707.47;8186912;28;20043;-71
2022/04/22 16:15:48;;;;;;;25.08;15.13;;;;;;;19.86;36.71;97708.16;8180464;28;20078;-71
2022/04/22 16:19:54;;;;;;;11.32;6.80;;;;;;;20.34;36.86;97716.22;8185227;29;20043;-71
2022/04/22 16:23:58;;;;;;;6.03;3.47;;;;;;;20.83;35.71;97707.47;8170906;29;20483;-71
2022/04/22 16:28:01;;;;;;;2.38;1.65;;;;;;;21.00;35.99;97710.53;8186799;29;20054;-71
2022/04/22 16:32:03;;;;;;;2.33;1.40;;;;;;;20.93;35.08;97713.75;8181214;29;20085;-72
2022/04/22 16:36:05;;;;;;;2.75;1.10;;;;;;;20.76;34.53;97704.41;8186946;29;20063;-72
2022/04/22 16:40:10;;;;;;;6.00;1.20;;;;;;;20.57;36.77;97711.97;8186207;29;20122;-72
2022/04/22 16:44:12;;;;;;;2.50;0.98;;;;;;;20.24;35.54;97716.03;8187577;29;20053;-72
2022/04/22 16:48:14;;;;;;;1.00;1.00;;;;;;;19.88;36.52;97714.16;8180349;28;20039;-72
2022/04/22 16:52:16;;;;;;;1.25;1.15;;;;;;;19.54;38.81;97716.44;8186797;29;20130;-71
2022/04/22 16:56:17;;;;;;;1.75;1.10;;;;;;;19.25;39.04;97721.03;8186872;28;20066;-72
2022/04/22 17:00:19;;;;;;;1.42;1.15;;;;;;;18.99;41.37;97724.50;8181663;29;20047;-71
2022/04/22 17:04:22;;;;;;;1.35;1.10;;;;;;;18.93;38.95;97722.28;8185818;29;20047;-71
2022/04/22 17:08:23;;;;;;;1.42;1.10;;;;;;;18.83;39.69;97719.38;8167858;29;20062;-72
2022/04/22 17:12:25;;;;;;;1.65;1.55;;;;;;;18.76;40.44;97722.53;8185603;28;20088;-71
2022/04/22 17:25:08;;;;;;;3.30;1.58;;;;;;;18.31;39.78;97727.06;8184835;29;20057;-72
2022/04/22 17:29:09;;;;;;;1.63;1.52;;;;;;;18.23;39.09;97727.56;8185956;29;20039;-71
2022/04/22 17:33:11;;;;;;;1.95;1.20;;;;;;;18.16;39.59;97723.63;8181629;29;20074;-72
2022/04/22 17:37:13;;;;;;;;;;;;;;;18.08;40.25;97726.72;8181086;28;20135;-72
2022/04/22 17:41:15;;;;;;;1.00;0.90;;;;;;;17.95;41.52;97731.03;8168381;28;19930;-72
2022/04/22 17:45:17;;;;;;;2.05;1.00;;;;;;;17.82;41.80;97737.97;8183702;29;20292;-72
2022/04/22 17:49:20;;;;;;;1.10;1.00;;;;;;;17.70;42.10;97744.78;8179519;28;20075;-72
2022/04/22 17:53:22;;;;;;;0.98;0.98;;;;;;;17.60;42.79;97740.16;8161490;29;20074;-71
2022/04/22 17:57:27;;;;;;;1.40;0.90;;;;;;;17.48;42.09;97733.84;8177608;28;20047;-71
2022/04/22 18:01:29;;;;;;;3.90;1.17;;;;;;;17.41;42.21;97738.59;8181598;29;20138;-71
2022/04/22 18:05:30;;;;;;;1.42;1.33;;;;;;;17.30;43.39;97738.38;8184449;29;20047;-72
2022/04/22 18:09:32;;;;;;;3.45;2.30;;;;;;;17.21;42.37;97741.53;8184641;29;20562;-71
2022/04/22 18:13:34;;;;;;;3.83;2.80;;;;;;;17.10;44.25;97746.56;8184849;29;20085;-71
2022/04/22 18:17:36;;;;;;;6.00;2.97;;;;;;;16.96;44.64;97749.13;8180155;29;20490;-71
2022/04/22 18:21:39;;;;;;;4.70;2.58;;;;;;;16.80;44.72;97754.38;8185210;28;20496;-72
2022/04/22 18:25:40;;;;;;;2.70;1.67;;;;;;;16.62;44.29;97753.59;8192144;29;20493;-73
2022/04/22 18:29:42;;;;;;;1.70;1.33;;;;;;;16.55;44.88;97760.94;8192181;29;20150;-72
2022/04/22 18:33:43;;;;;;;1.33;1.20;;;;;;;16.48;45.31;97763.97;8185270;29;20054;-72
2022/04/22 18:37:45;;;;;;;1.53;1.13;;;;;;;16.33;45.24;97760.38;8172991;29;20039;-72
2022/04/22 18:41:46;;;;;;;1.87;1.07;;;;;;;16.22;46.83;97760.13;8192616;29;20067;-72
2022/04/22 18:45:48;;;;;;;1.63;1.30;;;;;;;16.08;45.90;97763.47;8174862;28;20078;-72
2022/04/22 18:49:49;;;;;;;2.67;1.17;;;;;;;15.90;46.72;97767.06;8189672;29;20433;-72
2022/04/22 18:53:51;;;;;;;6.63;1.30;;;;;;;15.61;48.86;97769.38;8191653;29;20347;-73
2022/04/22 18:57:52;;;;;;;5.97;1.30;;;;;;;15.24;50.72;97766.88;8176441;28;20546;-72
2022/04/22 19:01:54;;;;;;;1.30;1.20;;;;;;;14.95;51.19;97774.41;8170281;29;20580;-71
2022/04/22 19:05:55;;;;;;;2.75;1.17;;;;;;;14.77;52.17;97770.03;8174682;29;20049;-71
2022/04/22 19:09:58;;;;;;;3.83;1.40;;;;;;;14.57;52.96;97776.19;8176221;29;20043;-71
2022/04/22 19:14:00;;;;;;;;;;;;;;;14.35;52.99;97765.00;8189253;29;20718;-71
2022/04/22 19:18:02;;;;;;;2.20;1.00;;;;;;;14.21;54.27;97776.94;8184924;29;19937;-72
2022/04/22 19:22:03;;;;;;;3.45;1.23;;;;;;;14.03;55.86;97769.06;8188650;28;20043;-70
2022/04/22 19:26:05;;;;;;;1.85;1.00;;;;;;;13.81;54.74;97763.94;8188408;29;21033;-72
2022/04/22 19:30:07;;;;;;;3.27;1.37;;;;;;;13.72;56.14;97770.41;8185932;28;20043;-71
2022/04/22 19:34:09;;;;;;;1.45;1.05;;;;;;;13.58;56.09;97763.16;8187468;28;20086;-73
2022/04/22 19:42:31;;;;;;;1.85;1.20;;;;;;;13.28;57.61;97765.31;8186387;28;20058;-72
2022/04/22 19:46:32;;;;;;;2.08;1.33;;;;;;;13.24;56.66;97771.53;8165755;28;20043;-71
2022/04/22 19:50:34;;;;;;;1.48;1.38;;;;;;;13.22;56.29;97781.19;8160327;28;20066;-72
2022/04/22 19:54:35;;;;;;;1.52;1.30;;;;;;;13.26;54.84;97782.75;8184950;28;20053;-71
2022/04/22 19:58:37;;;;;;;3.42;1.70;;;;;;;13.40;54.41;97782.19;8165662;28;20409;-71
2022/04/22 20:02:39;;;;;;;1.80;1.50;;;;;;;13.50;54.36;97775.69;8161237;29;20083;-72
2022/04/22 20:06:40;;;;;;;1.77;1.60;;;;;;;13.49;54.71;97786.19;8186880;29;20095;-71
2022/04/22 20:10:44;;;;;;;2.15;1.48;;;;;;;13.48;53.57;97777.53;8163870;29;20043;-72
2022/04/22 20:14:45;;;;;;;2.65;1.38;;;;;;;13.49;53.34;97788.78;8183897;28;20435;-71
2022/04/22 20:18:47;;;;;;;4.05;1.70;;;;;;;13.50;53.66;97787.88;8182073;28;20071;-72
2022/04/22 20:22:49;;;;;;;;;;;;;;;13.46;53.35;97781.91;8185464;28;20042;-73
2022/04/22 20:26:51;;;;;;;3.85;2.58;;;;;;;13.49;52.95;97787.03;8157346;28;20624;-71
2022/04/22 20:30:52;;;;;;;2.78;1.30;;;;;;;13.47;54.19;97780.19;8179619;28;20147;-71
2022/04/22 20:43:36;;;;;;;1.48;1.38;;;;;;;13.46;54.27;97794.97;8185255;29;20058;-71
2022/04/22 20:47:37;;;;;;;3.25;1.48;;;;;;;13.56;52.74;97785.00;8181763;28;20043;-72
2022/04/22 20:51:39;;;;;;;1.83;1.67;;;;;;;13.63;52.78;97793.41;8176682;28;20075;-72
2022/04/22 20:55:41;;;;;;;1.92;1.30;;;;;;;13.68;52.96;97791.47;8179514;29;20051;-71
2022/04/22 20:59:42;;;;;;;2.13;1.37;;;;;;;13.73;51.86;97797.34;8168073;29;20058;-71
2022/04/22 21:03:50;;;;;;;1.35;1.02;;;;;;;13.73;52.42;97799.94;8156969;29;20505;-71
2022/04/22 21:07:51;;;;;;;2.83;1.52;;;;;;;13.73;51.97;97795.56;8190424;29;20054;-71
2022/04/22 21:11:53;;;;;;;1.40;1.20;;;;;;;13.65;52.97;97797.69;8187955;29;20559;-71
2022/04/22 21:15:55;;;;;;;3.78;1.38;;;;;;;13.61;52.18;97799.53;8185578;29;20059;-72